Time;durP1;ratioP1;P1;durP2;ratioP2;P2;SDS_P1;SDS_P2;PMS_P1;PMS_P2;Temp;Humidity;BMP_temperature;BMP_pressure;BME280_temperature;BME280_humidity;BME280_pressure;Samples;Min_cycle;Max_cycle;Signal;HPM_P1;HPM_P2
2024/02/14 00:02:28;;;;;;;84.60;42.60;;;;;;;-1.02;87.79;100845.94;129476;1280;116060;-64
2024/02/14 00:05:30;;;;;;;79.00;39.60;;;;;;;-0.96;87.93;100848.43;129403;1262;116339;-65
2024/02/14 00:08:32;;;;;;;85.50;41.50;;;;;;;-0.91;87.86;100847.23;129684;1264;114785;-65
2024/02/14 00:11:34;;;;;;;80.70;42.20;;;;;;;-0.86;87.81;100851.48;129556;1261;114753;-64
2024/02/14 00:14:36;;;;;;;96.20;48.50;;;;;;;-0.80;88.07;100851.86;129178;1280;116541;-64
2024/02/14 00:17:38;;;;;;;89.30;50.00;;;;;;;-0.72;88.16;100851.02;129489;1274;114760;-64
2024/02/14 00:20:41;;;;;;;91.90;47.90;;;;;;;-0.68;88.09;100856.67;129513;1280;114953;-65
2024/02/14 00:23:43;;;;;;;92.80;44.90;;;;;;;-0.64;88.19;100855.64;129407;1280;114783;-64
2024/02/14 00:26:46;;;;;;;93.00;44.10;;;;;;;-0.62;88.02;100859.69;129509;1271;115662;-64
2024/02/14 00:29:48;;;;;;;91.10;44.60;;;;;;;-0.60;87.78;100858.11;129436;1271;114724;-65
2024/02/14 00:32:50;;;;;;;98.80;43.90;;;;;;;-0.59;87.90;100857.79;129541;1259;114800;-64
2024/02/14 00:35:52;;;;;;;97.80;46.10;;;;;;;-0.59;87.91;100857.77;129585;1259;114937;-64
2024/02/14 00:38:55;;;;;;;96.40;45.70;;;;;;;-0.59;87.60;100861.81;129589;1261;114759;-65
2024/02/14 00:41:57;;;;;;;97.60;47.20;;;;;;;-0.59;87.65;100863.55;129591;1261;114763;-65
2024/02/14 00:44:59;;;;;;;91.80;49.00;;;;;;;-0.59;87.67;100861.46;129437;1269;114807;-64
2024/02/14 00:48:02;;;;;;;92.40;46.30;;;;;;;-0.58;87.89;100861.11;129390;1262;114794;-64
2024/02/14 00:51:05;;;;;;;109.10;51.30;;;;;;;-0.55;88.20;100859.01;129514;1261;114801;-64
2024/02/14 00:54:08;;;;;;;109.70;54.40;;;;;;;-0.52;88.43;100859.56;129468;1259;115344;-65
2024/02/14 00:57:12;;;;;;;119.00;53.40;;;;;;;-0.46;88.71;100860.64;129488;1272;114765;-64
2024/02/14 01:00:17;;;;;;;111.00;52.80;;;;;;;-0.40;88.83;100861.20;129405;1264;114746;-64
2024/02/14 01:03:19;;;;;;;109.10;56.60;;;;;;;-0.34;89.13;100861.05;129481;1272;114726;-64
2024/02/14 01:06:21;;;;;;;110.20;55.00;;;;;;;-0.27;88.97;100865.48;129380;1261;114755;-65
2024/02/14 01:09:23;;;;;;;116.20;54.80;;;;;;;-0.22;88.92;100857.41;129482;1262;114702;-64
2024/02/14 01:12:25;;;;;;;113.60;58.10;;;;;;;-0.17;88.82;100856.90;129488;1265;115519;-64
2024/02/14 01:15:28;;;;;;;106.00;51.70;;;;;;;-0.12;88.95;100857.79;129515;1273;114755;-65
2024/02/14 01:18:30;;;;;;;112.40;59.40;;;;;;;-0.10;88.61;100853.77;129491;1261;114794;-65
2024/02/14 01:21:32;;;;;;;113.60;54.00;;;;;;;-0.09;88.70;100849.55;129295;1275;114889;-64
2024/02/14 01:24:34;;;;;;;112.70;54.60;;;;;;;-0.07;88.71;100848.33;129360;1280;114759;-65
2024/02/14 01:27:37;;;;;;;108.40;53.80;;;;;;;-0.07;88.59;100850.60;129304;1280;221595;-64
2024/02/14 01:30:39;;;;;;;112.00;57.20;;;;;;;-0.06;88.48;100848.67;129673;1280;114806;-64
2024/02/14 01:33:41;;;;;;;110.90;59.20;;;;;;;-0.07;88.22;100850.77;129358;1263;114708;-65
2024/02/14 01:36:43;;;;;;;118.00;56.70;;;;;;;-0.09;88.12;100854.99;129576;1262;115256;-64
2024/02/14 01:39:45;;;;;;;107.70;55.70;;;;;;;-0.11;88.13;100857.62;129446;1271;114753;-65
2024/02/14 01:42:47;;;;;;;110.80;57.50;;;;;;;-0.15;88.05;100858.48;129435;1280;114756;-65
2024/02/14 01:45:49;;;;;;;108.70;56.50;;;;;;;-0.19;88.05;100857.42;129405;1280;115278;-64
2024/02/14 01:48:51;;;;;;;112.80;55.10;;;;;;;-0.22;87.90;100858.10;129555;1280;114811;-65
2024/02/14 01:51:56;;;;;;;108.70;49.70;;;;;;;-0.27;87.80;100861.60;129499;1280;128472;-64
2024/02/14 01:54:58;;;;;;;106.00;51.80;;;;;;;-0.32;88.03;100859.65;129653;1263;114878;-64
2024/02/14 01:58:03;;;;;;;103.80;52.40;;;;;;;-0.36;87.93;100860.33;129629;1261;114794;-65
2024/02/14 02:01:05;;;;;;;105.10;52.30;;;;;;;-0.40;87.93;100861.02;129428;1264;114784;-64
2024/02/14 02:04:07;;;;;;;108.80;51.90;;;;;;;-0.44;87.91;100861.18;129571;1265;115167;-65
2024/02/14 02:07:09;;;;;;;109.00;51.60;;;;;;;-0.49;87.75;100860.79;129498;1262;115448;-64
2024/02/14 02:10:11;;;;;;;102.50;50.30;;;;;;;-0.55;87.65;100856.05;129482;1275;128364;-64
2024/02/14 02:13:15;;;;;;;103.80;49.20;;;;;;;-0.60;87.63;100856.36;129759;1280;115068;-64
2024/02/14 02:16:18;;;;;;;104.00;54.20;;;;;;;-0.65;87.31;100857.56;129525;1261;114708;-64
2024/02/14 02:19:20;;;;;;;104.20;49.80;;;;;;;-0.71;87.41;100854.71;129357;1266;115074;-64
2024/02/14 02:22:23;;;;;;;98.80;48.10;;;;;;;-0.77;87.33;100855.04;129547;1261;114700;-64
2024/02/14 02:25:26;;;;;;;99.60;49.80;;;;;;;-0.82;87.44;100847.98;129823;1273;114900;-64
2024/02/14 02:28:28;;;;;;;97.90;48.50;;;;;;;-0.87;87.33;100843.59;129785;1257;114898;-65
2024/02/14 02:31:30;;;;;;;95.40;47.80;;;;;;;-0.91;87.51;100844.95;129559;1262;114715;-64
2024/02/14 02:34:32;;;;;;;98.20;52.10;;;;;;;-0.96;87.31;100851.77;129494;1261;114812;-64
2024/02/14 02:37:35;;;;;;;101.60;50.50;;;;;;;-1.01;87.47;100855.42;129495;1262;114823;-64
2024/02/14 02:40:37;;;;;;;95.30;49.20;;;;;;;-1.05;87.40;100854.86;129590;1260;114816;-64
2024/02/14 02:43:39;;;;;;;96.20;48.90;;;;;;;-1.10;87.33;100856.41;129414;1261;115068;-64
2024/02/14 02:46:41;;;;;;;95.80;47.00;;;;;;;-1.14;87.46;100857.59;129450;1261;114703;-65
2024/02/14 02:49:44;;;;;;;91.60;44.70;;;;;;;-1.18;87.49;100851.27;129771;1271;128968;-64
2024/02/14 02:52:46;;;;;;;89.80;44.60;;;;;;;-1.22;87.58;100848.95;129406;1275;115218;-64
2024/02/14 02:55:50;;;;;;;90.30;44.70;;;;;;;-1.26;87.81;100848.77;129373;1280;114995;-64
2024/02/14 02:58:57;;;;;;;90.60;45.50;;;;;;;-1.31;87.47;100855.02;129459;1280;114875;-64
2024/02/14 03:01:59;;;;;;;85.60;41.80;;;;;;;-1.35;87.40;100856.91;129376;1264;114799;-64
2024/02/14 03:05:03;;;;;;;89.80;43.40;;;;;;;-1.39;87.49;100858.96;129365;1262;114837;-65
2024/02/14 03:08:07;;;;;;;94.80;48.40;;;;;;;-1.42;87.37;100854.58;129648;1280;115343;-64
2024/02/14 03:11:09;;;;;;;92.90;46.10;;;;;;;-1.45;87.60;100851.39;129468;1261;115630;-64
2024/02/14 03:14:11;;;;;;;103.30;48.30;;;;;;;-1.48;87.75;100844.19;129433;1261;115073;-64
2024/02/14 03:17:13;;;;;;;98.70;47.60;;;;;;;-1.51;88.03;100842.24;129666;1261;115410;-64
2024/02/14 03:20:16;;;;;;;95.70;50.10;;;;;;;-1.54;87.74;100848.34;129522;1270;114763;-64
2024/02/14 03:23:18;;;;;;;92.20;49.00;;;;;;;-1.56;87.79;100851.11;129382;1265;128834;-65
2024/02/14 03:26:20;;;;;;;91.30;49.00;;;;;;;-1.59;87.55;100852.86;129451;1260;114709;-64
2024/02/14 03:29:22;;;;;;;89.40;44.80;;;;;;;-1.61;87.75;100850.90;129441;1277;114716;-64
2024/02/14 03:32:26;;;;;;;89.80;43.60;;;;;;;-1.64;87.75;100850.52;129369;1262;114727;-64
2024/02/14 03:35:28;;;;;;;85.90;41.50;;;;;;;-1.67;88.04;100849.98;129459;1258;114812;-64
2024/02/14 03:38:31;;;;;;;80.20;39.70;;;;;;;-1.68;87.81;100850.84;129530;1264;114710;-65
2024/02/14 03:41:33;;;;;;;88.80;43.80;;;;;;;-1.70;88.73;100848.89;129924;1262;114742;-64
2024/02/14 03:44:35;;;;;;;84.00;41.80;;;;;;;-1.70;88.20;100852.92;129441;1272;114650;-64
2024/02/14 03:47:39;;;;;;;86.20;42.50;;;;;;;-1.71;88.26;100859.91;129548;1280;114988;-64
2024/02/14 03:50:42;;;;;;;82.70;40.80;;;;;;;-1.75;88.01;100864.77;129527;1271;114705;-65
2024/02/14 03:53:45;;;;;;;90.50;46.80;;;;;;;-1.77;88.35;100875.96;129498;1264;114742;-64
2024/02/14 03:56:47;;;;;;;78.90;40.80;;;;;;;-1.80;87.94;100876.64;129678;1262;115184;-65
2024/02/14 03:59:49;;;;;;;83.60;44.20;;;;;;;-1.81;88.21;100880.64;129564;1272;115118;-65
2024/02/14 04:02:53;;;;;;;72.60;38.00;;;;;;;-1.83;88.24;100882.03;129488;1269;128683;-65
2024/02/14 04:05:58;;;;;;;71.40;34.20;;;;;;;-1.83;88.60;100879.41;129317;1280;115325;-65
2024/02/14 04:09:03;;;;;;;67.60;33.30;;;;;;;-1.82;88.62;100881.70;129462;1273;114877;-65
2024/02/14 04:12:05;;;;;;;44.00;21.50;;;;;;;-1.80;89.40;100881.70;129534;1270;114722;-64
2024/02/14 04:15:09;;;;;;;70.80;32.80;;;;;;;-1.78;89.57;100879.45;129537;1265;114753;-64
2024/02/14 04:18:11;;;;;;;62.40;31.20;;;;;;;-1.76;90.03;100876.51;129460;1275;114688;-64
2024/02/14 04:21:14;;;;;;;64.40;31.70;;;;;;;-1.73;89.95;100875.98;129455;1257;115403;-65
2024/02/14 04:24:16;;;;;;;62.30;31.60;;;;;;;-1.72;89.75;100876.20;129263;1280;116664;-65
2024/02/14 04:27:18;;;;;;;62.80;32.00;;;;;;;-1.70;89.48;100881.98;129390;1259;115210;-67
2024/02/14 04:30:20;;;;;;;57.00;28.40;;;;;;;-1.69;89.73;100878.67;129561;1263;115236;-63
2024/02/14 04:33:22;;;;;;;60.00;29.60;;;;;;;-1.69;89.48;100874.65;129274;1271;115139;-64
2024/02/14 04:36:24;;;;;;;57.60;28.40;;;;;;;-1.69;89.78;100874.46;129441;1264;115087;-65
2024/02/14 04:39:26;;;;;;;61.20;29.10;;;;;;;-1.68;89.71;100880.96;129446;1264;114840;-64
2024/02/14 04:42:28;;;;;;;59.80;30.30;;;;;;;-1.67;89.64;100881.32;129371;1280;128660;-65
2024/02/14 04:45:30;;;;;;;59.30;29.90;;;;;;;-1.68;89.39;100882.72;129363;1280;114650;-64
2024/02/14 04:48:33;;;;;;;58.30;31.70;;;;;;;-1.68;89.18;100877.64;129435;1275;114643;-63
2024/02/14 04:51:35;;;;;;;58.60;28.20;;;;;;;-1.68;89.37;100877.81;129449;1261;114729;-64
2024/02/14 04:54:37;;;;;;;57.90;31.00;;;;;;;-1.68;89.50;100876.77;129403;1262;114702;-64
2024/02/14 04:57:39;;;;;;;60.30;32.00;;;;;;;-1.67;89.24;100873.61;129435;1257;114805;-64
2024/02/14 05:00:41;;;;;;;59.90;29.60;;;;;;;-1.66;89.47;100872.05;129445;1264;114788;-64
2024/02/14 05:03:43;;;;;;;56.40;31.20;;;;;;;-1.65;89.14;100867.16;129509;1258;114804;-64
2024/02/14 05:06:45;;;;;;;55.10;30.80;;;;;;;-1.66;89.21;100865.40;129629;1257;115898;-64
2024/02/14 05:09:50;;;;;;;55.30;26.90;;;;;;;-1.66;88.93;100866.27;129359;1280;116498;-64
2024/02/14 05:12:52;;;;;;;59.10;28.20;;;;;;;-1.67;88.97;100863.10;129513;1264;115133;-64
2024/02/14 05:15:54;;;;;;;55.20;28.20;;;;;;;-1.68;89.03;100860.81;129461;1264;116320;-64
2024/02/14 05:18:56;;;;;;;56.20;29.10;;;;;;;-1.69;89.52;100865.02;129567;1264;115040;-64
2024/02/14 05:21:58;;;;;;;50.50;26.80;;;;;;;-1.69;88.89;100864.30;129388;1265;114651;-64
2024/02/14 05:25:00;;;;;;;49.50;28.10;;;;;;;-1.70;88.87;100861.67;129426;1280;114787;-64
2024/02/14 05:28:05;;;;;;;54.30;26.50;;;;;;;-1.70;88.93;100869.90;129693;1276;115018;-65
2024/02/14 05:31:07;;;;;;;55.90;28.30;;;;;;;-1.70;89.20;100871.48;129951;1272;115444;-64
2024/02/14 05:34:10;;;;;;;55.60;27.70;;;;;;;-1.69;89.35;100870.97;129599;1280;114704;-64
2024/02/14 05:37:12;;;;;;;83.60;41.70;;;;;;;-1.68;89.58;100867.14;129719;1276;114742;-64
2024/02/14 05:40:14;;;;;;;66.50;36.00;;;;;;;-1.66;89.66;100863.65;129687;1262;114704;-65
2024/02/14 05:43:18;;;;;;;44.90;23.50;;;;;;;-1.64;89.60;100862.77;129590;1262;115187;-65
2024/02/14 05:46:20;;;;;;;47.60;23.20;;;;;;;-1.61;90.23;100861.77;129532;1263;114843;-64
2024/02/14 05:49:24;;;;;;;49.10;23.90;;;;;;;-1.57;90.38;100862.32;129499;1261;115353;-65
2024/02/14 05:52:26;;;;;;;48.80;24.50;;;;;;;-1.54;90.97;100861.30;129485;1257;114724;-65
2024/02/14 05:55:28;;;;;;;55.40;26.80;;;;;;;-1.51;90.55;100861.85;129536;1264;115236;-64
2024/02/14 05:58:31;;;;;;;55.40;25.80;;;;;;;-1.46;90.34;100867.50;129578;1260;114702;-65
2024/02/14 06:01:35;;;;;;;57.30;27.20;;;;;;;-1.42;90.28;100869.99;129480;1257;115172;-65
2024/02/14 06:04:37;;;;;;;60.30;31.20;;;;;;;-1.38;90.84;100866.70;129469;1264;128801;-64
2024/02/14 06:07:40;;;;;;;58.70;28.20;;;;;;;-1.31;91.10;100870.44;129385;1273;114723;-65
2024/02/14 06:10:42;;;;;;;50.70;28.50;;;;;;;-1.26;91.14;100870.82;129536;1261;114772;-64
2024/02/14 06:13:44;;;;;;;57.40;31.20;;;;;;;-1.20;91.19;100872.27;129415;1280;114801;-64
2024/02/14 06:16:46;;;;;;;51.10;27.10;;;;;;;-1.17;91.19;100873.19;129343;1263;114892;-65
2024/02/14 06:19:48;;;;;;;57.40;29.30;;;;;;;-1.13;90.98;100879.15;129430;1275;114904;-65
2024/02/14 06:22:51;;;;;;;52.60;26.80;;;;;;;-1.09;90.85;100880.08;129449;1280;115109;-65
2024/02/14 06:25:53;;;;;;;47.20;25.00;;;;;;;-1.07;90.75;100879.90;129543;1280;128419;-65
2024/02/14 06:28:55;;;;;;;55.00;25.00;;;;;;;-1.04;90.71;100873.44;129512;1280;114693;-64
2024/02/14 06:31:57;;;;;;;56.90;27.70;;;;;;;-1.01;90.83;100875.40;129492;1257;115380;-65
2024/02/14 06:35:00;;;;;;;64.00;30.30;;;;;;;-0.99;90.53;100879.80;129542;1257;115450;-64
2024/02/14 06:38:02;;;;;;;58.70;28.50;;;;;;;-0.96;90.47;100884.72;129522;1261;114701;-65
2024/02/14 06:41:05;;;;;;;56.10;26.90;;;;;;;-0.93;90.36;100885.27;129728;1260;114780;-65
2024/02/14 06:44:07;;;;;;;48.60;26.50;;;;;;;-0.90;90.33;100882.83;129531;1273;114821;-65
2024/02/14 06:47:09;;;;;;;49.40;26.80;;;;;;;-0.88;90.81;100881.27;129388;1276;115432;-65
2024/02/14 06:50:11;;;;;;;44.00;25.30;;;;;;;-0.82;90.66;100884.30;129498;1258;115183;-65
2024/02/14 06:53:13;;;;;;;47.20;22.20;;;;;;;-0.75;90.81;100884.86;129272;1280;116503;-65
2024/02/14 06:56:16;;;;;;;44.60;26.70;;;;;;;-0.68;91.00;100885.09;129583;1272;115201;-65
2024/02/14 06:59:18;;;;;;;44.60;23.60;;;;;;;-0.59;90.97;100885.67;129866;1257;114733;-65
2024/02/14 07:02:20;;;;;;;45.50;25.00;;;;;;;-0.47;91.26;100879.41;129641;1280;114700;-65
2024/02/14 07:05:23;;;;;;;51.20;26.30;;;;;;;-0.34;91.32;100878.42;129762;1262;114703;-65
2024/02/14 07:08:27;;;;;;;49.30;25.30;;;;;;;-0.19;91.40;100879.52;129511;1260;114715;-65
2024/02/14 07:11:30;;;;;;;48.50;25.60;;;;;;;-0.04;91.45;100880.46;129587;1280;114973;-65
2024/02/14 07:14:32;;;;;;;47.60;28.50;;;;;;;0.12;91.40;100882.11;129597;1264;114788;-64
2024/02/14 07:17:34;;;;;;;55.30;28.00;;;;;;;0.25;91.61;100888.98;129721;1258;114765;-65
2024/02/14 07:20:36;;;;;;;54.80;26.60;;;;;;;0.39;91.58;100891.48;129399;1262;114868;-65
2024/02/14 07:23:38;;;;;;;50.10;23.80;;;;;;;0.51;91.44;100883.23;129461;1258;114775;-64
2024/02/14 07:26:41;;;;;;;47.60;27.10;;;;;;;0.64;91.63;100881.84;129531;1257;114702;-64
2024/02/14 07:29:44;;;;;;;50.60;26.40;;;;;;;0.78;91.68;100886.06;129476;1276;128790;-65
2024/02/14 07:32:46;;;;;;;50.60;23.00;;;;;;;0.92;91.93;100885.36;129564;1271;115176;-66
2024/02/14 07:35:48;;;;;;;50.80;25.10;;;;;;;1.08;91.80;100879.18;129592;1257;114717;-65
2024/02/14 07:38:50;;;;;;;54.40;23.60;;;;;;;1.27;91.89;100871.07;129515;1264;114710;-65
2024/02/14 07:41:52;;;;;;;42.30;22.90;;;;;;;1.49;92.09;100867.67;129415;1259;114729;-65
2024/02/14 07:44:56;;;;;;;34.70;17.50;;;;;;;1.71;92.18;100860.02;129495;1261;115326;-65
2024/02/14 07:47:58;;;;;;;50.30;26.90;;;;;;;1.95;91.98;100856.38;129934;1261;114720;-65
2024/02/14 07:51:00;;;;;;;49.60;24.80;;;;;;;2.21;92.04;100850.42;129454;1263;117071;-65
2024/02/14 07:54:04;;;;;;;46.80;25.20;;;;;;;2.48;92.20;100850.42;129336;1263;114791;-65
2024/02/14 07:57:06;;;;;;;47.90;22.70;;;;;;;2.74;92.03;100852.33;129463;1266;114798;-64
2024/02/14 08:00:10;;;;;;;39.30;21.80;;;;;;;3.00;91.78;100854.92;129571;1257;115184;-64
2024/02/14 08:03:13;;;;;;;38.20;19.20;;;;;;;3.22;91.65;100852.95;129675;1258;114793;-66
2024/02/14 08:06:15;;;;;;;32.90;20.40;;;;;;;3.41;91.62;100847.81;129545;1261;114876;-63
2024/02/14 08:09:17;;;;;;;34.60;18.50;;;;;;;3.60;91.41;100843.88;129712;1261;114722;-66
2024/02/14 08:12:20;;;;;;;38.50;20.90;;;;;;;3.88;91.42;100844.76;129701;1260;115152;-64
2024/02/14 08:15:22;;;;;;;37.50;21.50;;;;;;;4.18;91.36;100841.17;129717;1273;114790;-63
2024/02/14 08:18:27;;;;;;;34.80;17.60;;;;;;;4.47;91.18;100842.35;129778;1257;115190;-64
2024/02/14 08:21:29;;;;;;;36.20;20.90;;;;;;;4.69;90.81;100838.63;129628;1275;114801;-64
2024/02/14 08:24:32;;;;;;;36.30;19.40;;;;;;;4.88;90.22;100841.66;129703;1262;115263;-63
2024/02/14 08:27:34;;;;;;;32.30;18.10;;;;;;;5.06;90.01;100840.64;129727;1257;114783;-64
2024/02/14 08:30:38;;;;;;;34.30;17.90;;;;;;;5.19;89.51;100839.54;129778;1258;114751;-64
2024/02/14 08:33:40;;;;;;;32.60;19.00;;;;;;;5.29;89.29;100843.24;129687;1257;114740;-63
2024/02/14 08:36:43;;;;;;;30.50;16.40;;;;;;;5.35;88.70;100848.27;129746;1261;114734;-64
2024/02/14 08:39:48;;;;;;;32.20;19.20;;;;;;;5.39;88.18;100847.10;129404;1266;114735;-64
2024/02/14 08:42:50;;;;;;;31.30;19.60;;;;;;;5.44;88.16;100845.98;129659;1261;114720;-64
2024/02/14 08:45:53;;;;;;;29.80;17.10;;;;;;;5.49;87.97;100850.83;129367;1267;114840;-64
2024/02/14 08:48:55;;;;;;;30.10;16.70;;;;;;;5.53;87.76;100848.46;129295;1281;114957;-64
2024/02/14 08:51:57;;;;;;;29.40;17.10;;;;;;;5.56;87.58;100848.73;129329;1266;114702;-63
2024/02/14 08:55:00;;;;;;;29.40;15.50;;;;;;;5.62;87.70;100847.56;129297;1265;114895;-63
2024/02/14 08:58:02;;;;;;;31.30;15.90;;;;;;;5.70;87.45;100849.71;129412;1262;115035;-63
2024/02/14 09:01:04;;;;;;;28.70;16.00;;;;;;;5.78;87.52;100843.51;129164;1267;114783;-64
2024/02/14 09:04:06;;;;;;;19.60;11.80;;;;;;;5.91;87.57;100845.36;129237;1262;114902;-63
2024/02/14 09:07:08;;;;;;;22.40;12.60;;;;;;;6.05;87.48;100841.02;129477;1259;114704;-63
2024/02/14 09:10:12;;;;;;;17.40;10.00;;;;;;;6.21;87.19;100839.77;129347;1280;114851;-63
2024/02/14 09:13:14;;;;;;;18.40;10.40;;;;;;;6.37;86.92;100835.33;129554;1261;114847;-63
2024/02/14 09:16:16;;;;;;;22.10;11.40;;;;;;;6.58;86.79;100835.90;129476;1258;114743;-63
2024/02/14 09:19:18;;;;;;;19.10;11.90;;;;;;;6.77;86.32;100835.61;129567;1280;114716;-64
2024/02/14 09:22:21;;;;;;;16.10;9.90;;;;;;;6.91;86.25;100836.30;129579;1264;116334;-64
2024/02/14 09:25:25;;;;;;;15.90;9.40;;;;;;;7.08;86.10;100836.61;129461;1261;114736;-63
2024/02/14 09:28:27;;;;;;;18.90;10.30;;;;;;;7.28;86.08;100833.06;129585;1261;115331;-63
2024/02/14 09:31:29;;;;;;;16.10;8.90;;;;;;;7.50;85.91;100834.73;129779;1261;115164;-63
2024/02/14 09:34:31;;;;;;;18.80;10.50;;;;;;;7.66;85.48;100827.72;129875;1257;115325;-63
2024/02/14 09:37:33;;;;;;;17.90;9.30;;;;;;;7.80;84.90;100825.54;129563;1259;114858;-63
2024/02/14 09:40:35;;;;;;;15.20;9.30;;;;;;;7.93;84.94;100823.70;129577;1258;115232;-64
2024/02/14 09:43:43;;;;;;;18.50;9.50;;;;;;;8.02;84.23;100829.67;129962;1261;114765;-63
2024/02/14 09:46:45;;;;;;;19.80;11.10;;;;;;;8.11;84.06;100826.20;129643;1261;128075;-63
2024/02/14 09:49:49;;;;;;;15.60;8.70;;;;;;;8.18;83.29;100824.02;129293;1257;115200;-63
2024/02/14 09:52:51;;;;;;;15.90;10.20;;;;;;;8.20;82.70;100821.48;129441;1261;115169;-63
2024/02/14 09:55:54;;;;;;;16.50;9.30;;;;;;;8.27;83.06;100819.11;129612;1262;114840;-65
2024/02/14 09:58:57;;;;;;;16.00;10.50;;;;;;;8.37;82.82;100823.09;129434;1273;114732;-63
2024/02/14 10:02:00;;;;;;;16.90;10.50;;;;;;;8.46;82.64;100819.61;129697;1264;114726;-63
2024/02/14 10:05:02;;;;;;;18.20;10.30;;;;;;;8.56;82.23;100818.08;129669;1262;114803;-64
2024/02/14 10:08:05;;;;;;;13.10;8.50;;;;;;;8.65;82.23;100815.27;129641;1280;115080;-63
2024/02/14 10:11:08;;;;;;;12.60;8.40;;;;;;;8.76;81.60;100807.06;129600;1260;115206;-64
2024/02/14 10:14:12;;;;;;;12.90;7.40;;;;;;;8.84;80.50;100802.02;129561;1257;115029;-64
2024/02/14 10:17:18;;;;;;;10.70;7.00;;;;;;;8.90;80.46;100794.65;129507;1261;114701;-63
2024/02/14 10:20:21;;;;;;;12.40;6.80;;;;;;;8.98;80.14;100793.14;129568;1258;114777;-65
2024/02/14 10:23:24;;;;;;;10.80;6.70;;;;;;;9.05;79.67;100788.78;129496;1257;114772;-65
2024/02/14 10:26:26;;;;;;;10.50;7.10;;;;;;;9.14;79.66;100785.44;129523;1280;114710;-65
2024/02/14 10:29:29;;;;;;;10.20;5.90;;;;;;;9.23;79.38;100779.59;129621;1258;116403;-65
2024/02/14 10:32:32;;;;;;;8.00;6.00;;;;;;;9.32;78.92;100772.67;129425;1261;115436;-65
2024/02/14 10:35:41;;;;;;;9.80;5.50;;;;;;;9.37;77.67;100772.67;129575;1261;114747;-64
2024/02/14 10:38:48;;;;;;;9.50;5.60;;;;;;;9.38;77.44;100769.40;129482;1259;114770;-65
2024/02/14 10:41:50;;;;;;;7.40;5.30;;;;;;;9.40;77.49;100765.25;129445;1257;127857;-65
2024/02/14 10:44:52;;;;;;;8.70;5.70;;;;;;;9.43;77.18;100760.34;129536;1258;115455;-64
2024/02/14 10:47:57;;;;;;;7.50;5.00;;;;;;;9.41;76.40;100751.33;129697;1261;114902;-64
2024/02/14 10:51:02;;;;;;;7.80;5.00;;;;;;;9.39;76.45;100750.84;129536;1263;114982;-64
2024/02/14 10:54:11;;;;;;;10.40;5.60;;;;;;;9.39;76.59;100747.97;129409;1280;114831;-65
2024/02/14 10:57:14;;;;;;;8.80;4.60;;;;;;;9.41;76.60;100742.91;129316;1259;114937;-64
2024/02/14 11:00:18;;;;;;;7.10;4.20;;;;;;;9.42;76.37;100738.27;129639;1263;114710;-65
2024/02/14 11:03:20;;;;;;;7.90;4.20;;;;;;;9.40;75.44;100737.96;129613;1257;115389;-64
2024/02/14 11:06:24;;;;;;;9.20;5.00;;;;;;;9.37;75.37;100730.96;129590;1261;114851;-66
2024/02/14 11:09:33;;;;;;;9.50;4.80;;;;;;;9.34;75.23;100726.10;129425;1267;114753;-63
2024/02/14 11:12:38;;;;;;;8.80;4.90;;;;;;;9.37;75.30;100728.84;129644;1280;114912;-63
2024/02/14 11:15:44;;;;;;;9.80;4.90;;;;;;;9.41;75.66;100725.27;129503;1263;128819;-64
2024/02/14 11:18:46;;;;;;;6.60;3.70;;;;;;;9.48;75.67;100720.21;129536;1280;114837;-64
2024/02/14 11:21:50;;;;;;;7.70;4.70;;;;;;;9.56;75.49;100715.43;129627;1261;114849;-64
2024/02/14 11:24:53;;;;;;;5.20;3.80;;;;;;;9.64;75.03;100708.55;129623;1261;115396;-64
2024/02/14 11:27:56;;;;;;;7.50;4.60;;;;;;;9.71;74.85;100705.23;129565;1264;114713;-64
2024/02/14 11:31:03;;;;;;;5.60;3.20;;;;;;;9.79;75.10;100703.48;129490;1274;114801;-66
2024/02/14 11:34:05;;;;;;;8.20;4.40;;;;;;;9.86;74.18;100700.72;129384;1262;114945;-66
2024/02/14 11:37:09;;;;;;;6.50;4.90;;;;;;;9.94;74.58;100703.07;129594;1261;114650;-63
2024/02/14 11:40:11;;;;;;;6.70;3.80;;;;;;;10.01;73.89;100699.56;129773;1280;114781;-66
2024/02/14 11:43:18;;;;;;;7.00;4.40;;;;;;;10.13;74.01;100692.33;129564;1258;114920;-64
2024/02/14 11:46:20;;;;;;;7.80;3.80;;;;;;;10.25;73.77;100690.36;129619;1264;114855;-64
2024/02/14 11:49:22;;;;;;;7.40;3.80;;;;;;;10.45;74.46;100681.54;129687;1261;114768;-64
2024/02/14 11:52:24;;;;;;;7.90;3.40;;;;;;;10.63;74.43;100684.16;129527;1274;114878;-64
2024/02/14 11:55:30;;;;;;;6.50;3.40;;;;;;;10.78;73.35;100686.35;129654;1261;115161;-64
2024/02/14 11:58:32;;;;;;;4.80;3.50;;;;;;;10.85;72.58;100677.33;129418;1257;115165;-64
2024/02/14 12:01:35;;;;;;;6.80;4.60;;;;;;;10.90;72.30;100679.25;129458;1275;114723;-63
2024/02/14 12:04:38;;;;;;;7.90;4.70;;;;;;;10.96;72.30;100680.41;129530;1280;114933;-64
2024/02/14 12:07:41;;;;;;;5.20;3.50;;;;;;;11.01;72.41;100675.86;129572;1261;114805;-64
2024/02/14 12:10:46;;;;;;;7.10;4.20;;;;;;;11.09;72.20;100674.82;129507;1258;114778;-64
2024/02/14 12:13:51;;;;;;;8.30;3.90;;;;;;;11.20;72.38;100671.27;129464;1261;114761;-64
2024/02/14 12:16:56;;;;;;;;;;;;;;;11.29;72.11;100668.37;129611;1261;114745;-64
2024/02/14 12:20:13;;;;;;;7.10;4.10;;;;;;;11.33;72.01;100663.66;129512;1280;115163;-64
2024/02/14 12:23:20;;;;;;;6.00;3.90;;;;;;;11.35;71.47;100660.91;129488;1280;129409;-64
2024/02/14 12:26:23;;;;;;;5.50;3.40;;;;;;;11.32;70.91;100655.49;129458;1267;116672;-64
2024/02/14 12:29:26;;;;;;;6.50;3.70;;;;;;;11.30;70.82;100653.84;129591;1263;114832;-64
2024/02/14 12:32:28;;;;;;;8.70;4.70;;;;;;;11.27;70.71;100652.86;129494;1261;114716;-64
2024/02/14 12:35:31;;;;;;;5.60;3.40;;;;;;;11.22;69.92;100649.17;129575;1280;115161;-64
2024/02/14 12:38:33;;;;;;;8.60;3.70;;;;;;;11.15;69.81;100647.73;129574;1261;114794;-64
2024/02/14 12:41:39;;;;;;;6.20;4.00;;;;;;;11.08;68.89;100649.64;129481;1280;128844;-64
2024/02/14 12:44:41;;;;;;;8.00;3.30;;;;;;;11.04;69.41;100645.88;129324;1259;115017;-64
2024/02/14 12:47:43;;;;;;;4.90;3.50;;;;;;;11.07;69.33;100639.69;129625;1261;114883;-64
2024/02/14 12:50:48;;;;;;;6.20;3.20;;;;;;;11.11;68.94;100637.86;129607;1258;114912;-63
2024/02/14 12:53:50;;;;;;;4.70;3.00;;;;;;;11.15;68.04;100628.05;129393;1261;115464;-63
2024/02/14 12:56:52;;;;;;;5.00;3.10;;;;;;;11.17;67.55;100628.16;129535;1263;114793;-64
2024/02/14 12:59:54;;;;;;;5.40;2.60;;;;;;;11.20;67.79;100626.74;129505;1261;114835;-64
2024/02/14 13:02:56;;;;;;;4.80;2.60;;;;;;;11.24;67.04;100625.66;129436;1280;127542;-63
2024/02/14 13:06:00;;;;;;;6.90;3.80;;;;;;;11.28;67.77;100619.95;129565;1261;115255;-64
2024/02/14 13:09:02;;;;;;;5.70;2.60;;;;;;;11.33;67.15;100623.65;129842;1261;114842;-64
2024/02/14 13:12:07;;;;;;;5.00;2.30;;;;;;;11.37;67.47;100618.95;129611;1259;114803;-63
2024/02/14 13:15:10;;;;;;;;;;;;;;;11.43;67.17;100622.09;129350;1263;114738;-63
2024/02/14 13:18:12;;;;;;;5.80;2.50;;;;;;;11.45;66.77;100619.67;129664;1262;114800;-63
2024/02/14 13:21:16;;;;;;;5.60;2.20;;;;;;;11.50;66.41;100616.38;129506;1261;114908;-64
2024/02/14 13:24:18;;;;;;;3.10;1.50;;;;;;;11.55;66.38;100615.79;129552;1261;115424;-63
2024/02/14 13:27:25;;;;;;;5.30;1.80;;;;;;;11.59;65.91;100611.81;129503;1259;216643;-64
2024/02/14 13:30:30;;;;;;;6.70;2.80;;;;;;;11.61;65.95;100609.05;129012;1270;114909;-64
2024/02/14 13:33:39;;;;;;;4.80;2.50;;;;;;;11.62;65.53;100602.90;129271;1283;129687;-64
2024/02/14 13:36:42;;;;;;;4.50;2.30;;;;;;;11.64;65.97;100603.00;129376;1262;114995;-64
2024/02/14 13:39:43;;;;;;;6.40;2.30;;;;;;;11.70;66.13;100603.44;129378;1261;115243;-63